Time;durP1;ratioP1;P1;durP2;ratioP2;P2;SDS_P1;SDS_P2;PMS_P1;PMS_P2;Temp;Humidity;BMP_temperature;BMP_pressure;BME280_temperature;BME280_humidity;BME280_pressure;Samples;Min_cycle;Max_cycle;Signal;HPM_P1;HPM_P2
2021/05/14 00:00:08;;;;;;;;;;;13.60;80.20;;;;;;5075388;28;19904;-73
2021/05/14 00:02:34;;;;;;;;;;;13.60;80.30;;;;;;5075491;28;20344;-73
2021/05/14 00:05:00;;;;;;;;;;;13.60;80.20;;;;;;5075375;28;19992;-73
2021/05/14 00:07:25;;;;;;;;;;;13.60;80.20;;;;;;5056278;28;19915;-73
2021/05/14 00:09:51;;;;;;;;;;;13.70;80.40;;;;;;5057152;28;19922;-73
2021/05/14 00:12:17;;;;;;;;;;;13.70;80.30;;;;;;5057176;28;19905;-73
2021/05/14 00:14:42;;;;;;;;;;;13.70;80.40;;;;;;5057332;28;19927;-73
2021/05/14 00:17:08;;;;;;;;;;;13.70;80.40;;;;;;5057180;28;19911;-73
2021/05/14 00:19:33;;;;;;;;;;;13.70;80.50;;;;;;5074979;28;19904;-73
2021/05/14 00:21:59;;;;;;;;;;;13.70;80.50;;;;;;5057205;28;19904;-73
2021/05/14 00:24:24;;;;;;;;;;;13.70;80.50;;;;;;5057189;28;19904;-74
2021/05/14 00:26:50;;;;;;;;;;;13.70;80.50;;;;;;5075594;28;20252;-73
2021/05/14 00:29:15;;;;;;;;;;;13.70;80.60;;;;;;5057057;28;19955;-73
2021/05/14 00:31:41;;;;;;;;;;;13.70;80.60;;;;;;5057009;28;19912;-73
2021/05/14 00:34:06;;;;;;;;;;;13.70;80.70;;;;;;5056831;28;20306;-73
2021/05/14 00:36:32;;;;;;;;;;;13.60;80.70;;;;;;5056934;28;19908;-73
2021/05/14 00:38:57;;;;;;;;;;;13.70;80.80;;;;;;5056839;28;19911;-73
2021/05/14 00:41:23;;;;;;;;;;;13.60;80.70;;;;;;5056916;28;19905;-74
2021/05/14 00:43:48;;;;;;;;;;;13.60;80.80;;;;;;5074712;28;19904;-73
2021/05/14 00:46:14;;;;;;;;;;;13.60;80.80;;;;;;5056676;28;19911;-74
2021/05/14 00:48:39;;;;;;;;;;;13.60;80.90;;;;;;5056497;28;19904;-73
2021/05/14 00:51:05;;;;;;;;;;;13.60;81.20;;;;;;5074548;28;19915;-73
2021/05/14 00:53:31;;;;;;;;;;;13.50;81.10;;;;;;5074575;28;19908;-73
2021/05/14 00:55:57;;;;;;;;;;;13.50;81.20;;;;;;5056572;28;19908;-73
2021/05/14 00:58:23;;;;;;;;;;;13.50;81.20;;;;;;5074361;28;19929;-73
2021/05/14 01:00:48;;;;;;;;;;;13.50;81.20;;;;;;5056480;28;19904;-74
2021/05/14 01:03:14;;;;;;;;;;;13.60;81.30;;;;;;5056386;28;19909;-73
2021/05/14 01:05:41;;;;;;;;;;;13.60;81.30;;;;;;5056309;28;19919;-73
2021/05/14 01:08:07;;;;;;;;;;;13.60;81.30;;;;;;5056140;28;19927;-73
2021/05/14 01:10:32;;;;;;;;;;;13.60;81.20;;;;;;5056177;28;19912;-73
2021/05/14 01:12:58;;;;;;;;;;;13.60;81.20;;;;;;5056466;28;20252;-73
2021/05/14 01:15:23;;;;;;;;;;;13.70;81.30;;;;;;5074116;28;19904;-73
2021/05/14 01:17:48;;;;;;;;;;;13.60;81.20;;;;;;5074366;28;19953;-73
2021/05/14 01:20:15;;;;;;;;;;;13.70;81.30;;;;;;5056001;28;19904;-73
2021/05/14 01:22:41;;;;;;;;;;;13.70;81.30;;;;;;5056345;28;20287;-73
2021/05/14 01:25:07;;;;;;;;;;;13.60;81.30;;;;;;5055899;28;19904;-73
2021/05/14 01:27:33;;;;;;;;;;;13.70;81.30;;;;;;5055901;28;19905;-73
2021/05/14 01:29:58;;;;;;;;;;;13.60;81.30;;;;;;5073788;28;20267;-74
2021/05/14 01:32:24;;;;;;;;;;;13.60;81.50;;;;;;5055874;28;19904;-73
2021/05/14 01:34:49;;;;;;;;;;;13.60;81.90;;;;;;5073945;28;19995;-74
2021/05/14 01:37:15;;;;;;;;;;;13.50;81.80;;;;;;5074029;28;19940;-74
2021/05/14 01:39:40;;;;;;;;;;;13.50;81.90;;;;;;5055693;28;20370;-73
2021/05/14 01:42:06;;;;;;;;;;;13.40;81.90;;;;;;5073681;28;20272;-74
2021/05/14 01:44:31;;;;;;;;;;;13.40;82.00;;;;;;5055616;28;19905;-73
2021/05/14 01:46:57;;;;;;;;;;;13.40;82.20;;;;;;5073952;28;19954;-73
2021/05/14 01:49:23;;;;;;;;;;;13.40;82.20;;;;;;5073536;28;19919;-73
2021/05/14 01:51:48;;;;;;;;;;;13.40;82.10;;;;;;5073514;28;19904;-74
2021/05/14 01:54:14;;;;;;;;;;;13.30;82.10;;;;;;5073642;28;20260;-73
2021/05/14 01:56:43;;;;;;;;;;;13.40;82.10;;;;;;5073562;28;19905;-73
2021/05/14 01:59:08;;;;;;;;;;;13.30;82.10;;;;;;5055513;28;19905;-73
2021/05/14 02:01:34;;;;;;;;;;;13.30;82.10;;;;;;5055477;28;20014;-73
2021/05/14 02:03:59;;;;;;;;;;;13.30;82.20;;;;;;5073429;28;19958;-73
2021/05/14 02:06:25;;;;;;;;;;;13.30;82.20;;;;;;5055957;28;19908;-74
2021/05/14 02:08:50;;;;;;;;;;;13.30;82.30;;;;;;5055253;28;20386;-74
2021/05/14 02:11:16;;;;;;;;;;;13.30;82.30;;;;;;5073869;28;19971;-73
2021/05/14 02:13:42;;;;;;;;;;;13.30;82.40;;;;;;5055418;28;19904;-74
2021/05/14 02:16:08;;;;;;;;;;;13.20;82.30;;;;;;5073256;28;20343;-73
2021/05/14 02:18:34;;;;;;;;;;;13.30;83.00;;;;;;5055270;28;19939;-73
2021/05/14 02:21:00;;;;;;;;;;;13.30;82.30;;;;;;5055269;28;19939;-73
2021/05/14 02:23:25;;;;;;;;;;;13.30;82.30;;;;;;5055306;28;20359;-73
2021/05/14 02:25:51;;;;;;;;;;;13.30;82.30;;;;;;5073182;28;19929;-73
2021/05/14 02:28:16;;;;;;;;;;;13.30;82.30;;;;;;5055158;28;20367;-73
2021/05/14 02:30:42;;;;;;;;;;;13.30;82.30;;;;;;5058232;28;19909;-73
2021/05/14 02:33:07;;;;;;;;;;;13.30;82.30;;;;;;5059136;28;19904;-73
2021/05/14 02:35:36;;;;;;;;;;;13.30;82.40;;;;;;5076965;28;19913;-74
2021/05/14 02:38:01;;;;;;;;;;;13.30;82.30;;;;;;5059108;28;19905;-73
2021/05/14 02:40:27;;;;;;;;;;;13.30;82.40;;;;;;5059060;28;20375;-74
2021/05/14 02:42:53;;;;;;;;;;;13.20;82.40;;;;;;5059036;28;20279;-73
2021/05/14 02:45:18;;;;;;;;;;;13.20;82.40;;;;;;5058930;28;19904;-73
2021/05/14 02:47:44;;;;;;;;;;;13.20;82.50;;;;;;5076855;28;19905;-73
2021/05/14 02:50:10;;;;;;;;;;;13.20;82.40;;;;;;5076715;28;19962;-73
2021/05/14 02:52:36;;;;;;;;;;;13.20;82.40;;;;;;5076826;28;19915;-73
2021/05/14 02:55:01;;;;;;;;;;;13.30;82.40;;;;;;5076697;28;19904;-73
2021/05/14 02:57:27;;;;;;;;;;;13.30;82.40;;;;;;5076640;28;19905;-72
2021/05/14 02:59:55;;;;;;;;;;;13.30;82.40;;;;;;5058601;28;19911;-73
2021/05/14 03:02:21;;;;;;;;;;;13.20;82.40;;;;;;5058645;28;19926;-73
2021/05/14 03:04:46;;;;;;;;;;;13.20;82.50;;;;;;5076548;28;19905;-73
2021/05/14 03:07:13;;;;;;;;;;;13.20;82.50;;;;;;5058486;28;19998;-73
2021/05/14 03:09:38;;;;;;;;;;;13.20;82.50;;;;;;5076326;28;19908;-73
2021/05/14 03:12:04;;;;;;;;;;;13.20;82.50;;;;;;5058343;28;19927;-73
2021/05/14 03:14:33;;;;;;;;;;;13.20;82.50;;;;;;5076206;28;19904;-73
2021/05/14 03:16:59;;;;;;;;;;;13.20;82.60;;;;;;5076267;28;20256;-74
2021/05/14 03:19:25;;;;;;;;;;;13.20;82.60;;;;;;5058349;28;19939;-74
2021/05/14 03:21:50;;;;;;;;;;;13.20;82.60;;;;;;5076640;28;19911;-73
2021/05/14 03:24:16;;;;;;;;;;;13.20;82.60;;;;;;5076403;28;19934;-73
2021/05/14 03:26:42;;;;;;;;;;;13.10;82.60;;;;;;5058037;28;19912;-74
2021/05/14 03:29:07;;;;;;;;;;;13.20;82.70;;;;;;5075960;28;20386;-72
2021/05/14 03:31:33;;;;;;;;;;;13.10;82.60;;;;;;5058004;28;20399;-73
2021/05/14 03:33:58;;;;;;;;;;;13.10;82.70;;;;;;5057825;28;19911;-72
2021/05/14 03:36:24;;;;;;;;;;;13.10;82.70;;;;;;5075807;28;20453;-73
2021/05/14 03:38:53;;;;;;;;;;;13.10;82.80;;;;;;5076271;28;20007;-73
2021/05/14 03:41:31;;;;;;;;;;;13.10;82.70;;;;;;5055958;28;19904;-73
2021/05/14 03:43:57;;;;;;;;;;;13.10;82.70;;;;;;5057733;28;20367;-72
2021/05/14 03:46:23;;;;;;;;;;;13.10;82.80;;;;;;5075713;28;19911;-72
2021/05/14 03:48:48;;;;;;;;;;;13.10;82.90;;;;;;5057301;28;19916;-73
2021/05/14 03:51:14;;;;;;;;;;;13.10;82.80;;;;;;5057552;28;19904;-72
2021/05/14 03:53:40;;;;;;;;;;;13.10;82.80;;;;;;5057459;28;19904;-72
2021/05/14 03:56:06;;;;;;;;;;;13.10;82.80;;;;;;5075422;28;19992;-73
2021/05/14 03:58:31;;;;;;;;;;;13.10;82.70;;;;;;5057444;28;20334;-72
2021/05/14 04:00:57;;;;;;;;;;;13.10;82.70;;;;;;5075378;28;20010;-73
2021/05/14 04:03:22;;;;;;;;;;;13.20;82.80;;;;;;5057336;28;19934;-72
2021/05/14 04:05:49;;;;;;;;;;;13.20;82.80;;;;;;5057328;28;19955;-72
2021/05/14 04:08:15;;;;;;;;;;;13.20;82.80;;;;;;5075182;28;19912;-73
2021/05/14 04:16:10;;;;;;;;;;;13.10;82.90;;;;;;5075406;28;19959;-73
2021/05/14 04:18:38;;;;;;;;;;;13.20;82.90;;;;;;5056993;28;20343;-73
2021/05/14 04:21:04;;;;;;;;;;;13.20;82.90;;;;;;5057236;28;19954;-73
2021/05/14 04:23:30;;;;;;;;;;;13.20;82.90;;;;;;5056999;28;19911;-72
2021/05/14 04:25:56;;;;;;;;;;;13.10;82.90;;;;;;5056844;28;19908;-73
2021/05/14 04:28:21;;;;;;;;;;;13.10;83.00;;;;;;5056860;28;19905;-73
2021/05/14 04:30:47;;;;;;;;;;;13.10;83.00;;;;;;5074624;28;19957;-73
2021/05/14 04:33:12;;;;;;;;;;;13.20;83.10;;;;;;5074649;28;19912;-74
2021/05/14 04:35:38;;;;;;;;;;;13.10;83.00;;;;;;5056493;28;19919;-73
2021/05/14 04:38:03;;;;;;;;;;;13.10;83.10;;;;;;5074518;28;20057;-73
2021/05/14 04:40:29;;;;;;;;;;;13.10;83.20;;;;;;5056623;28;19919;-73
2021/05/14 04:43:01;;;;;;;;;;;13.10;83.20;;;;;;5056493;28;20011;-72
2021/05/14 04:45:27;;;;;;;;;;;13.10;83.20;;;;;;5074479;28;19908;-73
2021/05/14 04:47:52;;;;;;;;;;;13.10;83.20;;;;;;5056543;28;19909;-73
2021/05/14 04:50:18;;;;;;;;;;;13.10;83.20;;;;;;5074282;28;20403;-73
2021/05/14 04:52:44;;;;;;;;;;;13.20;83.10;;;;;;5074286;28;20298;-72
2021/05/14 04:55:10;;;;;;;;;;;13.20;83.10;;;;;;5056322;28;19915;-72
2021/05/14 04:57:36;;;;;;;;;;;13.20;83.00;;;;;;5074253;28;19912;-73
2021/05/14 05:00:02;;;;;;;;;;;13.20;83.00;;;;;;5074314;28;20280;-73
2021/05/14 05:02:28;;;;;;;;;;;13.30;82.90;;;;;;5074209;28;19908;-73
2021/05/14 05:04:55;;;;;;;;;;;13.30;82.90;;;;;;5074082;28;19931;-72
2021/05/14 05:07:21;;;;;;;;;;;13.30;82.80;;;;;;5074097;28;19999;-73
2021/05/14 05:09:46;;;;;;;;;;;13.30;82.80;;;;;;5056045;28;19991;-73
2021/05/14 05:12:12;;;;;;;;;;;13.30;82.70;;;;;;5073934;28;20007;-73
2021/05/14 05:14:39;;;;;;;;;;;13.30;82.80;;;;;;5056073;28;19908;-73
2021/05/14 05:17:05;;;;;;;;;;;13.30;82.70;;;;;;5073942;28;19944;-73
2021/05/14 05:19:30;;;;;;;;;;;13.30;82.70;;;;;;5055978;28;19957;-73
2021/05/14 05:21:56;;;;;;;;;;;13.30;82.70;;;;;;5055798;28;19912;-72
2021/05/14 05:24:21;;;;;;;;;;;13.30;82.60;;;;;;5055800;28;20267;-73
2021/05/14 05:26:47;;;;;;;;;;;13.30;82.60;;;;;;5073746;28;20334;-73
2021/05/14 05:29:13;;;;;;;;;;;13.30;82.60;;;;;;5073625;28;20284;-73
2021/05/14 05:31:39;;;;;;;;;;;13.30;82.60;;;;;;5073556;28;19920;-73
2021/05/14 05:34:04;;;;;;;;;;;13.30;82.70;;;;;;5073625;28;19908;-73
2021/05/14 05:36:30;;;;;;;;;;;13.20;82.70;;;;;;5073534;28;19944;-73
2021/05/14 05:38:56;;;;;;;;;;;13.20;82.60;;;;;;5055486;28;19919;-73
2021/05/14 05:41:21;;;;;;;;;;;13.10;82.60;;;;;;5073613;28;19916;-73
2021/05/14 05:43:47;;;;;;;;;;;12.90;82.60;;;;;;5073610;28;19962;-73
2021/05/14 05:46:12;;;;;;;;;;;12.90;82.80;;;;;;5073526;28;20003;-72
2021/05/14 05:48:38;;;;;;;;;;;12.80;83.40;;;;;;5055397;28;19909;-73
2021/05/14 05:51:06;;;;;;;;;;;12.80;82.80;;;;;;5073457;28;19908;-73
2021/05/14 05:53:32;;;;;;;;;;;12.80;82.80;;;;;;5055707;28;19908;-73
2021/05/14 05:55:58;;;;;;;;;;;12.80;82.80;;;;;;5073560;28;20307;-72
2021/05/14 05:58:23;;;;;;;;;;;12.80;82.70;;;;;;5055530;28;20383;-73
2021/05/14 06:00:49;;;;;;;;;;;12.90;82.50;;;;;;5055490;28;19908;-73
2021/05/14 06:03:15;;;;;;;;;;;12.90;82.60;;;;;;5073430;28;19908;-74
2021/05/14 06:05:40;;;;;;;;;;;12.90;82.60;;;;;;5055051;28;19915;-73
2021/05/14 06:08:07;;;;;;;;;;;13.00;82.60;;;;;;5055670;28;19908;-73
2021/05/14 06:10:35;;;;;;;;;;;13.10;82.50;;;;;;5055439;28;19927;-73
2021/05/14 06:13:01;;;;;;;;;;;13.10;82.40;;;;;;5073891;28;19908;-73
2021/05/14 06:15:26;;;;;;;;;;;13.10;82.30;;;;;;5055454;28;19922;-73
2021/05/14 06:17:52;;;;;;;;;;;13.10;82.30;;;;;;5073233;28;19955;-74
2021/05/14 06:20:23;;;;;;;;;;;13.20;82.30;;;;;;5073355;28;19995;-73
2021/05/14 06:22:49;;;;;;;;;;;13.20;82.30;;;;;;5055566;28;19916;-73
2021/05/14 06:25:14;;;;;;;;;;;13.20;82.20;;;;;;5055462;28;19909;-74
2021/05/14 06:27:40;;;;;;;;;;;13.30;82.20;;;;;;5073913;28;19909;-72
2021/05/14 06:30:06;;;;;;;;;;;13.30;82.10;;;;;;5055124;28;19962;-73
2021/05/14 06:32:32;;;;;;;;;;;13.30;82.00;;;;;;5055164;28;19908;-73
2021/05/14 06:34:57;;;;;;;;;;;13.30;81.90;;;;;;5054884;28;19919;-73
2021/05/14 06:37:24;;;;;;;;;;;13.40;81.90;;;;;;5055067;28;19915;-73
2021/05/14 06:39:49;;;;;;;;;;;13.40;82.00;;;;;;5073060;28;19922;-73
2021/05/14 06:42:15;;;;;;;;;;;13.40;81.90;;;;;;5073030;28;19908;-72
2021/05/14 06:44:41;;;;;;;;;;;13.40;81.90;;;;;;5072922;28;20002;-73
2021/05/14 06:47:06;;;;;;;;;;;13.40;81.80;;;;;;5054991;28;19909;-73
2021/05/14 06:49:32;;;;;;;;;;;13.50;81.90;;;;;;5072812;28;19978;-74
2021/05/14 06:51:57;;;;;;;;;;;13.50;81.80;;;;;;5072931;28;20355;-73
2021/05/14 06:54:23;;;;;;;;;;;13.50;81.80;;;;;;5054993;28;20356;-74
2021/05/14 06:56:50;;;;;;;;;;;13.60;81.70;;;;;;5054774;28;19955;-73
2021/05/14 06:59:15;;;;;;;;;;;13.50;81.60;;;;;;5054871;28;20299;-73
2021/05/14 07:01:43;;;;;;;;;;;13.60;81.70;;;;;;5054881;28;19908;-73
2021/05/14 07:04:09;;;;;;;;;;;13.60;81.70;;;;;;5054986;28;20075;-73
2021/05/14 07:06:35;;;;;;;;;;;13.50;81.50;;;;;;5054606;28;20025;-73
2021/05/14 07:09:00;;;;;;;;;;;13.60;81.60;;;;;;5072469;28;19912;-72
2021/05/14 07:11:26;;;;;;;;;;;13.60;81.60;;;;;;5054626;28;19915;-73
2021/05/14 07:13:52;;;;;;;;;;;13.60;81.50;;;;;;5054582;28;19910;-73
2021/05/14 07:16:20;;;;;;;;;;;13.70;81.50;;;;;;5074697;28;19918;-73
2021/05/14 07:18:46;;;;;;;;;;;13.70;81.30;;;;;;5058259;28;19912;-72
2021/05/14 07:21:11;;;;;;;;;;;13.80;81.10;;;;;;5058347;28;19915;-72
2021/05/14 07:23:37;;;;;;;;;;;13.90;80.90;;;;;;5058677;28;19908;-72
2021/05/14 07:29:06;;;;;;;;;;;13.90;80.60;;;;;;5076522;28;19923;-72
2021/05/14 07:31:32;;;;;;;;;;;14.00;80.40;;;;;;5057938;28;20351;-72
2021/05/14 07:33:57;;;;;;;;;;;14.10;80.30;;;;;;5057924;28;19916;-72
2021/05/14 07:36:24;;;;;;;;;;;14.10;80.10;;;;;;5075632;28;19916;-72
2021/05/14 07:38:50;;;;;;;;;;;14.20;79.80;;;;;;5075819;28;20015;-73
2021/05/14 07:41:16;;;;;;;;;;;14.10;79.80;;;;;;5058069;28;20418;-72
2021/05/14 07:43:41;;;;;;;;;;;14.10;79.80;;;;;;5075782;28;19909;-72
2021/05/14 07:46:07;;;;;;;;;;;14.10;80.00;;;;;;5075801;28;19908;-72
2021/05/14 07:48:33;;;;;;;;;;;14.20;79.80;;;;;;5057590;28;19908;-72
2021/05/14 07:50:58;;;;;;;;;;;14.30;79.80;;;;;;5075622;28;20284;-72
2021/05/14 07:53:24;;;;;;;;;;;14.30;79.80;;;;;;5075598;28;20362;-73
2021/05/14 07:55:49;;;;;;;;;;;14.30;79.80;;;;;;5057943;28;19908;-72
2021/05/14 07:58:15;;;;;;;;;;;14.30;79.60;;;;;;5057541;28;19931;-73
2021/05/14 08:00:41;;;;;;;;;;;14.40;79.60;;;;;;5075517;28;20352;-72
2021/05/14 08:03:06;;;;;;;;;;;14.40;79.40;;;;;;5057817;28;19943;-73
2021/05/14 08:05:32;;;;;;;;;;;14.30;79.20;;;;;;5057387;28;20416;-73
2021/05/14 08:07:58;;;;;;;;;;;14.30;79.30;;;;;;5056920;28;19951;-72
2021/05/14 08:10:24;;;;;;;;;;;14.30;79.40;;;;;;5056966;28;19999;-72
2021/05/14 08:12:49;;;;;;;;;;;14.30;79.30;;;;;;5057132;28;19915;-72
2021/05/14 08:15:15;;;;;;;;;;;14.30;79.10;;;;;;5057201;28;19916;-73
2021/05/14 08:17:40;;;;;;;;;;;14.20;79.10;;;;;;5057201;28;19956;-71
2021/05/14 08:20:07;;;;;;;;;;;14.20;79.30;;;;;;5075104;28;19908;-73
2021/05/14 08:22:33;;;;;;;;;;;14.30;79.30;;;;;;5057060;28;19908;-75
2021/05/14 08:24:58;;;;;;;;;;;14.30;78.70;;;;;;5057113;28;20317;-74
2021/05/14 08:27:24;;;;;;;;;;;14.30;78.70;;;;;;5056432;28;19915;-74
2021/05/14 08:29:49;;;;;;;;;;;14.20;78.80;;;;;;5075107;28;20011;-74
2021/05/14 08:32:15;;;;;;;;;;;14.20;78.70;;;;;;5075109;28;19916;-74
2021/05/14 08:34:40;;;;;;;;;;;14.20;78.70;;;;;;5053784;28;20346;-74
2021/05/14 08:37:06;;;;;;;;;;;14.20;78.60;;;;;;5053594;28;19915;-74
2021/05/14 08:39:31;;;;;;;;;;;14.30;78.60;;;;;;5054851;28;19916;-74
2021/05/14 08:42:01;;;;;;;;;;;14.30;78.10;;;;;;5054861;28;19916;-74
2021/05/14 08:44:27;;;;;;;;;;;14.30;78.20;;;;;;5053560;28;20287;-74
2021/05/14 08:46:53;;;;;;;;;;;14.20;78.20;;;;;;5054767;28;19995;-74
2021/05/14 08:49:18;;;;;;;;;;;14.20;78.00;;;;;;5054755;28;20372;-74
2021/05/14 08:51:44;;;;;;;;;;;14.20;78.20;;;;;;5053412;28;20015;-73
2021/05/14 08:54:10;;;;;;;;;;;14.20;78.10;;;;;;5054586;28;19958;-74
2021/05/14 08:56:35;;;;;;;;;;;14.20;78.20;;;;;;5053149;28;19913;-74
2021/05/14 08:59:01;;;;;;;;;;;14.20;78.10;;;;;;5054317;28;19955;-73
2021/05/14 09:01:27;;;;;;;;;;;14.30;78.00;;;;;;5052905;28;19909;-73
2021/05/14 09:04:06;;;;;;;;;;;14.40;77.90;;;;;;5052808;28;20315;-72
2021/05/14 09:06:32;;;;;;;;;;;14.50;77.70;;;;;;5054481;28;19931;-73
2021/05/14 09:08:59;;;;;;;;;;;14.50;77.40;;;;;;5052285;28;19909;-74
2021/05/14 09:11:31;;;;;;;;;;;14.50;77.30;;;;;;5052716;28;20333;-73
2021/05/14 09:13:57;;;;;;;;;;;14.50;77.10;;;;;;5053945;28;20364;-73
2021/05/14 09:16:36;;;;;;;;;;;14.50;77.20;;;;;;5053936;28;19909;-73
2021/05/14 09:19:08;;;;;;;;;;;14.60;77.30;;;;;;5052653;28;20220;-73
2021/05/14 09:24:26;;;;;;;;;;;14.80;76.70;;;;;;5053726;28;20372;-73
2021/05/14 09:26:51;;;;;;;;;;;14.70;76.20;;;;;;5053938;28;20425;-73
2021/05/14 09:29:34;;;;;;;;;;;14.60;76.40;;;;;;5053981;28;20007;-73
2021/05/14 09:32:17;;;;;;;;;;;14.60;76.60;;;;;;5052369;28;20292;-74
2021/05/14 09:34:46;;;;;;;;;;;14.70;76.70;;;;;;5052221;28;19908;-73
2021/05/14 09:37:15;;;;;;;;;;;14.70;76.40;;;;;;5052335;28;19908;-73
2021/05/14 09:39:41;;;;;;;;;;;14.80;76.10;;;;;;5053310;28;19915;-73
2021/05/14 09:42:07;;;;;;;;;;;14.80;76.00;;;;;;5053839;28;19908;-73
2021/05/14 09:44:32;;;;;;;;;;;14.80;76.00;;;;;;5053651;28;19908;-74
2021/05/14 09:46:58;;;;;;;;;;;14.90;75.80;;;;;;5053284;28;20288;-73
2021/05/14 09:49:24;;;;;;;;;;;14.90;75.80;;;;;;5053287;28;20249;-73
2021/05/14 09:51:51;;;;;;;;;;;15.00;75.90;;;;;;5053237;28;19909;-73
2021/05/14 09:54:18;;;;;;;;;;;15.00;75.40;;;;;;5053339;28;19917;-73
2021/05/14 09:56:44;;;;;;;;;;;15.10;75.20;;;;;;5053537;28;20287;-73
2021/05/14 09:59:10;;;;;;;;;;;15.00;74.80;;;;;;5051999;28;19947;-73
2021/05/14 10:01:36;;;;;;;;;;;15.10;74.60;;;;;;5051993;28;19936;-73
2021/05/14 10:04:01;;;;;;;;;;;15.10;74.90;;;;;;5053084;28;20364;-73
2021/05/14 10:06:27;;;;;;;;;;;15.10;74.80;;;;;;5051696;28;20402;-73
2021/05/14 10:08:54;;;;;;;;;;;15.20;74.40;;;;;;5051810;28;19916;-73
2021/05/14 10:11:21;;;;;;;;;;;15.30;74.00;;;;;;5052872;28;19911;-72
2021/05/14 10:13:46;;;;;;;;;;;15.40;73.90;;;;;;5051735;28;19912;-73
2021/05/14 10:16:12;;;;;;;;;;;15.40;73.40;;;;;;5053093;28;20360;-71
2021/05/14 10:18:41;;;;;;;;;;;15.50;73.30;;;;;;5053574;28;19905;-73
2021/05/14 10:21:10;;;;;;;;;;;15.60;72.90;;;;;;5051654;28;20352;-73
2021/05/14 10:23:36;;;;;;;;;;;15.70;72.50;;;;;;5051592;28;19909;-72
2021/05/14 10:26:08;;;;;;;;;;;15.70;72.10;;;;;;5051423;28;19912;-73
2021/05/14 10:28:52;;;;;;;;;;;15.80;71.90;;;;;;5052867;28;20275;-73
2021/05/14 10:31:21;;;;;;;;;;;15.90;71.80;;;;;;5052382;28;19908;-73
2021/05/14 10:33:48;;;;;;;;;;;16.00;71.20;;;;;;5052769;28;19996;-72
2021/05/14 10:36:28;;;;;;;;;;;15.90;71.00;;;;;;5069201;28;19912;-73
2021/05/14 10:39:02;;;;;;;;;;;15.80;70.80;;;;;;5073173;28;19910;-72
2021/05/14 10:41:28;;;;;;;;;;;15.70;70.20;;;;;;5054730;28;19948;-73
2021/05/14 10:44:06;;;;;;;;;;;15.70;70.70;;;;;;5072709;28;19955;-73
2021/05/14 10:46:33;;;;;;;;;;;15.70;70.90;;;;;;5072763;28;19916;-73
2021/05/14 10:49:00;;;;;;;;;;;15.80;70.40;;;;;;5054754;28;19919;-73
2021/05/14 10:51:45;;;;;;;;;;;15.80;69.30;;;;;;5058092;28;19904;-74
2021/05/14 10:54:31;;;;;;;;;;;15.80;70.10;;;;;;5076511;28;19991;-72
2021/05/14 10:56:56;;;;;;;;;;;15.80;69.70;;;;;;5058213;28;19936;-73
2021/05/14 10:59:33;;;;;;;;;;;15.80;69.30;;;;;;5058651;28;19959;-73
2021/05/14 11:01:59;;;;;;;;;;;15.80;69.50;;;;;;5058520;28;19912;-73
2021/05/14 11:04:24;;;;;;;;;;;15.90;69.60;;;;;;5058694;28;20276;-73
2021/05/14 11:06:51;;;;;;;;;;;16.00;69.60;;;;;;5058447;28;20363;-73
2021/05/14 11:09:17;;;;;;;;;;;16.10;69.00;;;;;;5076177;28;19915;-73
2021/05/14 11:11:54;;;;;;;;;;;16.20;69.00;;;;;;5076242;28;19904;-72
2021/05/14 11:14:20;;;;;;;;;;;16.30;68.70;;;;;;5076225;28;19904;-73
2021/05/14 11:16:46;;;;;;;;;;;16.40;68.30;;;;;;5058204;28;19915;-72
2021/05/14 11:19:26;;;;;;;;;;;16.40;66.90;;;;;;5076015;28;19942;-73
2021/05/14 11:22:03;;;;;;;;;;;16.30;66.70;;;;;;5076229;28;19911;-73
2021/05/14 11:24:31;;;;;;;;;;;16.20;67.00;;;;;;5076678;28;19905;-74
2021/05/14 11:27:01;;;;;;;;;;;16.10;66.40;;;;;;5058366;28;19904;-73
2021/05/14 11:29:34;;;;;;;;;;;16.10;67.60;;;;;;5057814;28;20348;-73
2021/05/14 11:32:33;;;;;;;;;;;16.20;67.50;;;;;;5057896;28;20352;-72
2021/05/14 11:34:59;;;;;;;;;;;16.20;66.60;;;;;;5020876;28;20378;-73
2021/05/14 11:37:26;;;;;;;;;;;16.40;67.20;;;;;;5057560;28;19982;-73
2021/05/14 11:39:52;;;;;;;;;;;16.50;67.00;;;;;;5076012;28;19904;-72
2021/05/14 11:42:18;;;;;;;;;;;16.60;67.20;;;;;;5075874;28;19911;-72
2021/05/14 11:44:57;;;;;;;;;;;16.70;65.60;;;;;;5075759;28;19911;-72
2021/05/14 11:47:23;;;;;;;;;;;16.70;65.60;;;;;;5057816;28;19905;-72
2021/05/14 11:49:49;;;;;;;;;;;16.70;66.10;;;;;;5075632;28;20047;-72
2021/05/14 11:52:15;;;;;;;;;;;16.80;65.80;;;;;;5075576;28;19936;-72
2021/05/14 11:54:40;;;;;;;;;;;16.80;66.00;;;;;;5057544;28;19904;-72
2021/05/14 11:57:06;;;;;;;;;;;16.90;65.80;;;;;;5057608;28;20245;-71
2021/05/14 11:59:31;;;;;;;;;;;17.10;65.90;;;;;;5057349;28;19905;-72
2021/05/14 12:01:57;;;;;;;;;;;17.20;65.90;;;;;;5056317;28;20015;-71
2021/05/14 12:04:22;;;;;;;;;;;17.30;63.90;;;;;;5057095;28;19904;-72
2021/05/14 12:06:49;;;;;;;;;;;17.30;63.70;;;;;;5057020;28;19904;-71
2021/05/14 12:09:18;;;;;;;;;;;17.30;63.00;;;;;;5075000;28;20281;-72
2021/05/14 12:11:44;;;;;;;;;;;17.20;63.50;;;;;;5074962;28;19943;-72
2021/05/14 12:14:30;;;;;;;;;;;17.30;62.80;;;;;;5056928;28;19904;-71
2021/05/14 12:16:56;;;;;;;;;;;17.30;62.60;;;;;;5074223;28;19912;-72
2021/05/14 12:19:21;;;;;;;;;;;17.40;62.20;;;;;;5074741;28;19913;-71
2021/05/14 12:21:47;;;;;;;;;;;17.40;61.80;;;;;;5074779;28;20356;-72
2021/05/14 12:24:14;;;;;;;;;;;17.50;62.30;;;;;;5056740;28;19946;-71
2021/05/14 12:26:41;;;;;;;;;;;17.50;60.70;;;;;;5056768;28;19911;-72
2021/05/14 12:29:23;;;;;;;;;;;17.40;61.60;;;;;;5056702;28;19911;-71
2021/05/14 12:31:58;;;;;;;;;;;17.40;59.60;;;;;;5056538;28;19904;-71
2021/05/14 12:34:24;;;;;;;;;;;17.30;60.60;;;;;;5056482;28;19905;-71
2021/05/14 12:36:54;;;;;;;;;;;17.30;60.50;;;;;;5074383;28;19912;-71
2021/05/14 12:39:20;;;;;;;;;;;17.40;61.20;;;;;;5074389;28;19904;-71
2021/05/14 12:41:49;;;;;;;;;;;17.50;61.00;;;;;;5074435;28;19908;-71
2021/05/14 12:44:20;;;;;;;;;;;17.60;60.80;;;;;;5074743;28;19954;-71
2021/05/14 12:46:58;;;;;;;;;;;17.80;60.80;;;;;;5074277;28;20003;-72
2021/05/14 12:49:24;;;;;;;;;;;17.90;60.00;;;;;;5056084;28;19912;-71
2021/05/14 12:52:01;;;;;;;;;;;17.90;60.00;;;;;;5074176;28;19915;-71
2021/05/14 12:54:27;;;;;;;;;;;18.00;58.80;;;;;;5074250;28;19904;-71
2021/05/14 12:56:52;;;;;;;;;;;18.10;59.20;;;;;;5074277;28;20374;-71
2021/05/14 12:59:18;;;;;;;;;;;18.20;59.20;;;;;;5056201;28;19910;-71
2021/05/14 13:01:50;;;;;;;;;;;18.30;59.20;;;;;;5055962;28;19915;-71
2021/05/14 13:04:17;;;;;;;;;;;18.30;59.20;;;;;;5073903;28;20299;-70
2021/05/14 13:06:42;;;;;;;;;;;18.30;58.40;;;;;;5056043;28;19904;-71
2021/05/14 13:09:15;;;;;;;;;;;18.30;57.90;;;;;;5055667;28;19915;-71
2021/05/14 13:11:42;;;;;;;;;;;18.20;58.70;;;;;;5073814;28;19938;-71
2021/05/14 13:14:11;;;;;;;;;;;18.20;58.10;;;;;;5055540;28;19904;-71
2021/05/14 13:16:36;;;;;;;;;;;18.20;56.10;;;;;;5056669;28;19957;-71
2021/05/14 13:19:03;;;;;;;;;;;18.20;56.30;;;;;;5055707;28;19904;-72
2021/05/14 13:21:29;;;;;;;;;;;18.20;57.40;;;;;;5073819;28;19904;-71
2021/05/14 13:23:55;;;;;;;;;;;18.40;57.90;;;;;;5073666;28;19904;-72
2021/05/14 13:26:21;;;;;;;;;;;18.60;57.40;;;;;;5055582;28;20421;-72
2021/05/14 13:28:46;;;;;;;;;;;18.80;57.70;;;;;;5073577;28;19999;-71
2021/05/14 13:31:13;;;;;;;;;;;18.90;56.70;;;;;;5055515;28;19912;-71
2021/05/14 13:33:40;;;;;;;;;;;19.00;56.30;;;;;;5073659;28;20321;-71
2021/05/14 13:36:06;;;;;;;;;;;19.10;55.70;;;;;;5073262;28;20414;-71
2021/05/14 13:38:31;;;;;;;;;;;19.20;56.30;;;;;;5055117;28;19904;-71
2021/05/14 13:40:57;;;;;;;;;;;19.30;55.40;;;;;;5055385;28;20362;-71
2021/05/14 13:43:22;;;;;;;;;;;19.50;55.00;;;;;;5073229;28;20405;-71
2021/05/14 13:45:48;;;;;;;;;;;19.50;54.70;;;;;;5073263;28;20327;-71
2021/05/14 13:48:16;;;;;;;;;;;19.50;53.90;;;;;;5055092;28;20328;-71
2021/05/14 13:50:41;;;;;;;;;;;19.50;53.40;;;;;;5055097;28;19999;-71
2021/05/14 13:53:07;;;;;;;;;;;19.60;53.80;;;;;;5073175;28;19951;-71
2021/05/14 13:55:33;;;;;;;;;;;19.70;53.40;;;;;;5055187;28;19904;-70
2021/05/14 13:57:58;;;;;;;;;;;19.60;53.30;;;;;;5073312;28;19905;-71
2021/05/14 14:00:24;;;;;;;;;;;19.60;54.30;;;;;;5073183;28;19905;-70
2021/05/14 14:02:50;;;;;;;;;;;19.50;53.50;;;;;;5055218;28;19911;-70
2021/05/14 14:05:16;;;;;;;;;;;19.40;54.20;;;;;;5073313;28;20331;-70
2021/05/14 14:07:41;;;;;;;;;;;19.20;54.50;;;;;;5073334;28;19910;-71
2021/05/14 14:10:07;;;;;;;;;;;19.10;51.80;;;;;;5055047;28;20355;-71
2021/05/14 14:12:32;;;;;;;;;;;19.00;52.30;;;;;;5054908;28;19904;-72
2021/05/14 14:14:58;;;;;;;;;;;18.90;52.60;;;;;;5073059;28;19904;-71
2021/05/14 14:17:23;;;;;;;;;;;18.80;52.00;;;;;;5073337;28;19905;-72
2021/05/14 14:19:49;;;;;;;;;;;18.70;51.60;;;;;;5055053;28;20321;-72
2021/05/14 14:22:14;;;;;;;;;;;18.60;52.90;;;;;;5054928;28;19904;-73
2021/05/14 14:24:40;;;;;;;;;;;18.60;53.40;;;;;;5055006;28;19904;-73